sensor_id;sensor_type;location;lat;lon;timestamp;P1;durP1;ratioP1;P2;durP2;ratioP2
305;SDS011;137;48.578;9.180;2022-11-20T00:00:21;4.40;;;4.00;;
305;SDS011;137;48.578;9.180;2022-11-20T00:02:50;3.80;;;3.20;;
305;SDS011;137;48.578;9.180;2022-11-20T00:05:17;4.50;;;2.93;;
305;SDS011;137;48.578;9.180;2022-11-20T00:07:44;2.80;;;2.60;;
305;SDS011;137;48.578;9.180;2022-11-20T00:10:11;3.83;;;3.27;;
305;SDS011;137;48.578;9.180;2022-11-20T00:12:42;3.80;;;3.17;;
305;SDS011;137;48.578;9.180;2022-11-20T00:15:13;3.33;;;3.03;;
305;SDS011;137;48.578;9.180;2022-11-20T00:17:40;2.90;;;2.60;;
305;SDS011;137;48.578;9.180;2022-11-20T00:20:07;2.93;;;2.63;;
305;SDS011;137;48.578;9.180;2022-11-20T00:22:36;3.60;;;3.27;;
305;SDS011;137;48.578;9.180;2022-11-20T00:25:03;3.47;;;3.17;;
305;SDS011;137;48.578;9.180;2022-11-20T00:27:31;3.47;;;3.17;;
305;SDS011;137;48.578;9.180;2022-11-20T00:29:58;2.87;;;2.60;;
305;SDS011;137;48.578;9.180;2022-11-20T00:32:26;3.27;;;2.57;;
305;SDS011;137;48.578;9.180;2022-11-20T00:34:55;3.90;;;3.10;;
305;SDS011;137;48.578;9.180;2022-11-20T00:37:36;4.47;;;2.93;;
305;SDS011;137;48.578;9.180;2022-11-20T00:40:03;4.37;;;3.00;;
305;SDS011;137;48.578;9.180;2022-11-20T00:42:31;4.47;;;3.07;;
305;SDS011;137;48.578;9.180;2022-11-20T00:44:58;3.50;;;3.00;;
305;SDS011;137;48.578;9.180;2022-11-20T00:47:28;3.50;;;2.83;;
305;SDS011;137;48.578;9.180;2022-11-20T00:49:55;3.00;;;2.70;;
305;SDS011;137;48.578;9.180;2022-11-20T00:52:22;3.30;;;2.40;;
305;SDS011;137;48.578;9.180;2022-11-20T00:54:52;7.10;;;3.30;;
305;SDS011;137;48.578;9.180;2022-11-20T00:57:19;2.97;;;2.67;;
305;SDS011;137;48.578;9.180;2022-11-20T00:59:46;3.93;;;3.53;;
305;SDS011;137;48.578;9.180;2022-11-20T01:02:13;3.70;;;3.40;;
305;SDS011;137;48.578;9.180;2022-11-20T01:04:42;3.17;;;2.87;;
305;SDS011;137;48.578;9.180;2022-11-20T01:07:09;2.57;;;2.37;;
305;SDS011;137;48.578;9.180;2022-11-20T01:09:36;2.90;;;2.70;;
305;SDS011;137;48.578;9.180;2022-11-20T01:12:03;4.13;;;3.73;;
305;SDS011;137;48.578;9.180;2022-11-20T01:14:30;3.83;;;3.00;;
305;SDS011;137;48.578;9.180;2022-11-20T01:16:57;3.20;;;2.90;;
305;SDS011;137;48.578;9.180;2022-11-20T01:19:24;3.50;;;3.20;;
305;SDS011;137;48.578;9.180;2022-11-20T01:21:53;2.97;;;2.43;;
305;SDS011;137;48.578;9.180;2022-11-20T01:24:21;2.87;;;2.67;;
305;SDS011;137;48.578;9.180;2022-11-20T01:26:48;2.47;;;2.27;;
305;SDS011;137;48.578;9.180;2022-11-20T01:29:17;3.00;;;2.80;;
305;SDS011;137;48.578;9.180;2022-11-20T01:31:45;2.70;;;2.43;;
305;SDS011;137;48.578;9.180;2022-11-20T01:34:13;2.80;;;2.57;;
305;SDS011;137;48.578;9.180;2022-11-20T01:36:42;3.60;;;3.13;;
305;SDS011;137;48.578;9.180;2022-11-20T01:39:12;4.90;;;3.10;;
305;SDS011;137;48.578;9.180;2022-11-20T01:41:40;3.93;;;3.07;;
305;SDS011;137;48.578;9.180;2022-11-20T01:47:31;3.13;;;2.80;;
305;SDS011;137;48.578;9.180;2022-11-20T01:50:04;3.80;;;3.33;;
305;SDS011;137;48.578;9.180;2022-11-20T01:52:36;4.37;;;3.23;;
305;SDS011;137;48.578;9.180;2022-11-20T01:55:09;3.80;;;2.87;;
305;SDS011;137;48.578;9.180;2022-11-20T01:57:41;4.07;;;3.30;;
305;SDS011;137;48.578;9.180;2022-11-20T02:00:11;3.70;;;3.40;;
305;SDS011;137;48.578;9.180;2022-11-20T02:02:40;5.43;;;4.30;;
305;SDS011;137;48.578;9.180;2022-11-20T02:05:12;4.50;;;4.10;;
305;SDS011;137;48.578;9.180;2022-11-20T02:07:44;4.07;;;3.60;;
305;SDS011;137;48.578;9.180;2022-11-20T02:10:14;3.33;;;2.97;;
305;SDS011;137;48.578;9.180;2022-11-20T02:12:41;3.83;;;3.47;;
305;SDS011;137;48.578;9.180;2022-11-20T02:15:25;3.50;;;3.20;;
305;SDS011;137;48.578;9.180;2022-11-20T02:17:52;3.57;;;3.27;;
305;SDS011;137;48.578;9.180;2022-11-20T02:20:19;3.33;;;3.03;;
305;SDS011;137;48.578;9.180;2022-11-20T02:22:47;5.73;;;2.83;;
305;SDS011;137;48.578;9.180;2022-11-20T02:25:22;4.13;;;3.00;;
305;SDS011;137;48.578;9.180;2022-11-20T02:27:51;3.23;;;2.93;;
305;SDS011;137;48.578;9.180;2022-11-20T02:30:18;4.00;;;3.60;;
305;SDS011;137;48.578;9.180;2022-11-20T02:32:45;4.90;;;4.40;;
305;SDS011;137;48.578;9.180;2022-11-20T02:38:07;5.83;;;3.93;;
305;SDS011;137;48.578;9.180;2022-11-20T02:40:36;4.30;;;3.70;;
305;SDS011;137;48.578;9.180;2022-11-20T02:43:03;4.80;;;4.33;;
305;SDS011;137;48.578;9.180;2022-11-20T02:45:30;5.10;;;4.60;;
305;SDS011;137;48.578;9.180;2022-11-20T02:47:56;4.30;;;3.63;;
305;SDS011;137;48.578;9.180;2022-11-20T02:50:23;8.30;;;5.37;;
305;SDS011;137;48.578;9.180;2022-11-20T02:52:51;7.20;;;4.93;;
305;SDS011;137;48.578;9.180;2022-11-20T02:55:18;5.60;;;4.70;;
305;SDS011;137;48.578;9.180;2022-11-20T02:57:46;4.50;;;4.10;;
305;SDS011;137;48.578;9.180;2022-11-20T03:00:13;5.50;;;5.00;;
305;SDS011;137;48.578;9.180;2022-11-20T03:02:41;7.13;;;6.00;;
305;SDS011;137;48.578;9.180;2022-11-20T03:05:08;5.87;;;5.37;;
305;SDS011;137;48.578;9.180;2022-11-20T03:07:34;4.57;;;4.17;;
305;SDS011;137;48.578;9.180;2022-11-20T03:10:01;5.23;;;4.73;;
305;SDS011;137;48.578;9.180;2022-11-20T03:12:28;6.20;;;5.50;;
305;SDS011;137;48.578;9.180;2022-11-20T03:14:56;6.70;;;5.57;;
305;SDS011;137;48.578;9.180;2022-11-20T03:17:23;5.13;;;3.83;;
305;SDS011;137;48.578;9.180;2022-11-20T03:19:50;5.00;;;4.43;;
305;SDS011;137;48.578;9.180;2022-11-20T03:22:17;5.93;;;3.70;;
305;SDS011;137;48.578;9.180;2022-11-20T03:24:44;4.10;;;3.57;;
305;SDS011;137;48.578;9.180;2022-11-20T03:27:11;4.20;;;3.80;;
305;SDS011;137;48.578;9.180;2022-11-20T03:29:37;5.50;;;4.70;;
305;SDS011;137;48.578;9.180;2022-11-20T03:32:06;4.70;;;3.77;;
305;SDS011;137;48.578;9.180;2022-11-20T03:34:33;6.17;;;4.60;;
305;SDS011;137;48.578;9.180;2022-11-20T03:37:00;3.87;;;3.33;;
305;SDS011;137;48.578;9.180;2022-11-20T03:39:27;5.47;;;4.30;;
305;SDS011;137;48.578;9.180;2022-11-20T03:41:53;3.63;;;3.33;;
305;SDS011;137;48.578;9.180;2022-11-20T03:44:20;3.83;;;3.40;;
305;SDS011;137;48.578;9.180;2022-11-20T03:46:47;4.10;;;3.33;;
305;SDS011;137;48.578;9.180;2022-11-20T03:49:15;5.20;;;3.13;;
305;SDS011;137;48.578;9.180;2022-11-20T03:51:42;4.77;;;3.83;;
305;SDS011;137;48.578;9.180;2022-11-20T03:54:09;3.70;;;3.30;;
305;SDS011;137;48.578;9.180;2022-11-20T03:56:37;3.60;;;3.30;;
305;SDS011;137;48.578;9.180;2022-11-20T03:59:05;3.60;;;3.30;;
305;SDS011;137;48.578;9.180;2022-11-20T04:01:32;4.00;;;3.43;;
305;SDS011;137;48.578;9.180;2022-11-20T04:04:00;3.43;;;3.10;;
305;SDS011;137;48.578;9.180;2022-11-20T04:06:30;3.70;;;3.17;;
305;SDS011;137;48.578;9.180;2022-11-20T04:09:01;4.10;;;3.17;;
305;SDS011;137;48.578;9.180;2022-11-20T04:11:29;3.07;;;2.40;;
305;SDS011;137;48.578;9.180;2022-11-20T04:13:58;3.67;;;3.00;;
305;SDS011;137;48.578;9.180;2022-11-20T04:16:27;3.47;;;3.10;;
305;SDS011;137;48.578;9.180;2022-11-20T04:18:59;3.20;;;2.90;;
305;SDS011;137;48.578;9.180;2022-11-20T04:21:27;3.40;;;2.30;;
305;SDS011;137;48.578;9.180;2022-11-20T04:23:55;2.43;;;2.23;;
305;SDS011;137;48.578;9.180;2022-11-20T04:26:23;2.90;;;2.60;;
305;SDS011;137;48.578;9.180;2022-11-20T04:28:51;2.80;;;2.33;;
305;SDS011;137;48.578;9.180;2022-11-20T04:31:19;3.30;;;2.43;;
305;SDS011;137;48.578;9.180;2022-11-20T04:33:47;3.43;;;2.57;;
305;SDS011;137;48.578;9.180;2022-11-20T04:36:15;2.40;;;2.20;;
305;SDS011;137;48.578;9.180;2022-11-20T04:38:44;4.37;;;2.40;;
305;SDS011;137;48.578;9.180;2022-11-20T04:41:14;2.43;;;2.23;;
305;SDS011;137;48.578;9.180;2022-11-20T04:43:45;3.20;;;2.87;;
305;SDS011;137;48.578;9.180;2022-11-20T04:46:13;3.50;;;2.50;;
305;SDS011;137;48.578;9.180;2022-11-20T04:48:40;2.67;;;2.47;;
305;SDS011;137;48.578;9.180;2022-11-20T04:51:07;2.73;;;1.80;;
305;SDS011;137;48.578;9.180;2022-11-20T04:53:34;7.70;;;2.97;;
305;SDS011;137;48.578;9.180;2022-11-20T04:56:03;2.53;;;2.33;;
305;SDS011;137;48.578;9.180;2022-11-20T04:58:31;3.63;;;2.00;;
305;SDS011;137;48.578;9.180;2022-11-20T05:01:01;2.83;;;2.60;;
305;SDS011;137;48.578;9.180;2022-11-20T05:03:29;4.20;;;3.50;;
305;SDS011;137;48.578;9.180;2022-11-20T05:05:56;1.87;;;1.70;;
305;SDS011;137;48.578;9.180;2022-11-20T05:08:26;2.17;;;1.90;;
305;SDS011;137;48.578;9.180;2022-11-20T05:10:52;2.00;;;1.80;;
305;SDS011;137;48.578;9.180;2022-11-20T05:13:21;2.90;;;1.93;;
305;SDS011;137;48.578;9.180;2022-11-20T05:15:48;4.80;;;1.87;;
305;SDS011;137;48.578;9.180;2022-11-20T05:18:15;4.00;;;2.20;;
305;SDS011;137;48.578;9.180;2022-11-20T05:20:41;2.00;;;1.60;;
305;SDS011;137;48.578;9.180;2022-11-20T05:23:08;1.60;;;1.50;;
305;SDS011;137;48.578;9.180;2022-11-20T05:25:35;1.90;;;1.53;;
305;SDS011;137;48.578;9.180;2022-11-20T05:28:02;2.10;;;1.70;;
305;SDS011;137;48.578;9.180;2022-11-20T05:30:31;1.60;;;1.47;;
305;SDS011;137;48.578;9.180;2022-11-20T05:32:58;2.10;;;1.90;;
305;SDS011;137;48.578;9.180;2022-11-20T05:35:25;2.30;;;2.10;;
305;SDS011;137;48.578;9.180;2022-11-20T05:37:51;2.10;;;1.90;;
305;SDS011;137;48.578;9.180;2022-11-20T05:40:18;3.00;;;1.70;;
305;SDS011;137;48.578;9.180;2022-11-20T05:42:45;2.20;;;1.90;;
305;SDS011;137;48.578;9.180;2022-11-20T05:45:12;2.23;;;2.03;;
305;SDS011;137;48.578;9.180;2022-11-20T05:47:40;1.70;;;1.60;;
305;SDS011;137;48.578;9.180;2022-11-20T05:50:07;6.33;;;2.00;;
305;SDS011;137;48.578;9.180;2022-11-20T05:52:34;2.80;;;1.70;;
305;SDS011;137;48.578;9.180;2022-11-20T05:55:01;1.43;;;1.30;;
305;SDS011;137;48.578;9.180;2022-11-20T05:57:28;1.70;;;1.57;;
305;SDS011;137;48.578;9.180;2022-11-20T05:59:55;2.10;;;1.90;;
305;SDS011;137;48.578;9.180;2022-11-20T06:02:22;2.53;;;2.00;;
305;SDS011;137;48.578;9.180;2022-11-20T06:04:50;2.00;;;1.80;;
305;SDS011;137;48.578;9.180;2022-11-20T06:07:17;2.20;;;1.93;;
305;SDS011;137;48.578;9.180;2022-11-20T06:09:43;1.90;;;1.70;;
305;SDS011;137;48.578;9.180;2022-11-20T06:12:10;1.67;;;1.57;;
305;SDS011;137;48.578;9.180;2022-11-20T06:14:37;4.13;;;2.10;;
305;SDS011;137;48.578;9.180;2022-11-20T06:17:04;2.63;;;1.60;;
305;SDS011;137;48.578;9.180;2022-11-20T06:19:31;1.60;;;1.50;;
305;SDS011;137;48.578;9.180;2022-11-20T06:21:59;1.80;;;1.70;;
305;SDS011;137;48.578;9.180;2022-11-20T06:24:26;5.53;;;2.53;;
305;SDS011;137;48.578;9.180;2022-11-20T06:26:53;2.50;;;1.77;;
305;SDS011;137;48.578;9.180;2022-11-20T06:29:19;1.83;;;1.47;;
305;SDS011;137;48.578;9.180;2022-11-20T06:31:46;1.80;;;1.70;;
305;SDS011;137;48.578;9.180;2022-11-20T06:34:13;2.33;;;2.13;;
305;SDS011;137;48.578;9.180;2022-11-20T06:36:40;3.80;;;1.70;;
305;SDS011;137;48.578;9.180;2022-11-20T06:39:08;2.10;;;1.83;;
305;SDS011;137;48.578;9.180;2022-11-20T06:41:35;1.77;;;1.67;;
305;SDS011;137;48.578;9.180;2022-11-20T06:44:03;2.60;;;1.90;;
305;SDS011;137;48.578;9.180;2022-11-20T06:46:30;2.17;;;1.73;;
305;SDS011;137;48.578;9.180;2022-11-20T06:48:58;1.90;;;1.70;;
305;SDS011;137;48.578;9.180;2022-11-20T06:51:24;2.10;;;1.87;;
305;SDS011;137;48.578;9.180;2022-11-20T06:53:51;2.10;;;1.47;;
305;SDS011;137;48.578;9.180;2022-11-20T06:56:20;2.10;;;1.77;;
305;SDS011;137;48.578;9.180;2022-11-20T06:58:47;5.27;;;2.00;;
305;SDS011;137;48.578;9.180;2022-11-20T07:01:14;2.13;;;1.80;;
305;SDS011;137;48.578;9.180;2022-11-20T07:03:41;2.50;;;1.70;;
305;SDS011;137;48.578;9.180;2022-11-20T07:06:08;2.00;;;1.50;;
305;SDS011;137;48.578;9.180;2022-11-20T07:08:36;2.03;;;1.83;;
305;SDS011;137;48.578;9.180;2022-11-20T07:11:04;2.43;;;2.23;;
305;SDS011;137;48.578;9.180;2022-11-20T07:13:33;2.10;;;1.70;;
305;SDS011;137;48.578;9.180;2022-11-20T07:19:33;3.43;;;1.73;;
305;SDS011;137;48.578;9.180;2022-11-20T07:22:00;1.83;;;1.67;;
305;SDS011;137;48.578;9.180;2022-11-20T07:24:27;2.00;;;1.80;;
305;SDS011;137;48.578;9.180;2022-11-20T07:26:54;2.13;;;1.57;;
305;SDS011;137;48.578;9.180;2022-11-20T07:29:22;2.60;;;1.90;;
305;SDS011;137;48.578;9.180;2022-11-20T07:31:49;1.63;;;1.50;;
305;SDS011;137;48.578;9.180;2022-11-20T07:34:16;1.77;;;1.57;;
305;SDS011;137;48.578;9.180;2022-11-20T07:36:43;2.73;;;2.10;;
305;SDS011;137;48.578;9.180;2022-11-20T07:39:10;2.60;;;1.87;;
305;SDS011;137;48.578;9.180;2022-11-20T07:41:37;1.70;;;1.50;;
305;SDS011;137;48.578;9.180;2022-11-20T07:44:04;1.70;;;1.40;;
305;SDS011;137;48.578;9.180;2022-11-20T07:46:32;3.33;;;1.73;;
305;SDS011;137;48.578;9.180;2022-11-20T07:48:59;2.03;;;1.83;;
305;SDS011;137;48.578;9.180;2022-11-20T07:51:26;3.00;;;1.80;;
305;SDS011;137;48.578;9.180;2022-11-20T07:53:56;2.23;;;1.67;;
305;SDS011;137;48.578;9.180;2022-11-20T07:56:23;2.60;;;1.60;;
305;SDS011;137;48.578;9.180;2022-11-20T07:58:50;1.77;;;1.50;;
305;SDS011;137;48.578;9.180;2022-11-20T08:01:17;2.40;;;1.87;;
305;SDS011;137;48.578;9.180;2022-11-20T08:03:45;1.60;;;1.40;;
305;SDS011;137;48.578;9.180;2022-11-20T08:06:12;1.37;;;1.20;;
305;SDS011;137;48.578;9.180;2022-11-20T08:08:39;1.40;;;1.30;;
305;SDS011;137;48.578;9.180;2022-11-20T08:11:06;1.90;;;1.50;;
305;SDS011;137;48.578;9.180;2022-11-20T08:13:51;1.57;;;1.47;;
305;SDS011;137;48.578;9.180;2022-11-20T08:16:35;1.50;;;1.20;;
305;SDS011;137;48.578;9.180;2022-11-20T08:19:03;1.80;;;1.60;;
305;SDS011;137;48.578;9.180;2022-11-20T08:21:33;1.30;;;1.00;;
305;SDS011;137;48.578;9.180;2022-11-20T08:24:00;1.50;;;1.40;;
305;SDS011;137;48.578;9.180;2022-11-20T08:26:27;1.77;;;1.30;;
305;SDS011;137;48.578;9.180;2022-11-20T08:28:54;1.40;;;1.30;;
305;SDS011;137;48.578;9.180;2022-11-20T08:31:25;1.43;;;1.10;;
305;SDS011;137;48.578;9.180;2022-11-20T08:33:55;1.83;;;1.40;;
305;SDS011;137;48.578;9.180;2022-11-20T08:36:24;1.60;;;1.40;;
305;SDS011;137;48.578;9.180;2022-11-20T08:38:52;4.93;;;1.50;;
305;SDS011;137;48.578;9.180;2022-11-20T08:41:20;1.43;;;1.30;;
305;SDS011;137;48.578;9.180;2022-11-20T08:43:51;2.70;;;1.30;;
305;SDS011;137;48.578;9.180;2022-11-20T08:46:22;2.07;;;1.60;;
305;SDS011;137;48.578;9.180;2022-11-20T08:48:50;2.20;;;1.00;;
305;SDS011;137;48.578;9.180;2022-11-20T08:51:20;1.10;;;0.90;;
305;SDS011;137;48.578;9.180;2022-11-20T08:53:51;2.50;;;1.30;;
305;SDS011;137;48.578;9.180;2022-11-20T08:56:20;1.87;;;1.30;;
305;SDS011;137;48.578;9.180;2022-11-20T08:58:49;1.87;;;1.30;;
305;SDS011;137;48.578;9.180;2022-11-20T09:01:16;1.40;;;1.27;;
305;SDS011;137;48.578;9.180;2022-11-20T09:03:43;2.80;;;2.50;;
305;SDS011;137;48.578;9.180;2022-11-20T09:06:09;1.53;;;1.30;;
305;SDS011;137;48.578;9.180;2022-11-20T09:08:36;1.33;;;1.23;;
305;SDS011;137;48.578;9.180;2022-11-20T09:11:07;2.13;;;1.30;;
305;SDS011;137;48.578;9.180;2022-11-20T09:13:35;1.20;;;1.03;;
305;SDS011;137;48.578;9.180;2022-11-20T09:16:06;2.20;;;1.60;;
305;SDS011;137;48.578;9.180;2022-11-20T09:18:35;1.37;;;1.20;;
305;SDS011;137;48.578;9.180;2022-11-20T09:21:03;1.40;;;1.00;;
305;SDS011;137;48.578;9.180;2022-11-20T09:23:32;2.50;;;1.40;;
305;SDS011;137;48.578;9.180;2022-11-20T09:26:01;2.20;;;1.43;;
305;SDS011;137;48.578;9.180;2022-11-20T09:28:31;1.50;;;1.30;;
305;SDS011;137;48.578;9.180;2022-11-20T09:30:59;1.70;;;1.33;;
305;SDS011;137;48.578;9.180;2022-11-20T09:33:41;2.37;;;1.20;;
305;SDS011;137;48.578;9.180;2022-11-20T09:36:11;3.80;;;1.23;;
305;SDS011;137;48.578;9.180;2022-11-20T09:38:39;2.13;;;1.30;;
305;SDS011;137;48.578;9.180;2022-11-20T09:41:11;1.30;;;1.20;;
305;SDS011;137;48.578;9.180;2022-11-20T09:44:04;1.30;;;1.07;;
305;SDS011;137;48.578;9.180;2022-11-20T09:46:48;2.13;;;1.50;;
305;SDS011;137;48.578;9.180;2022-11-20T09:49:39;1.10;;;0.87;;
305;SDS011;137;48.578;9.180;2022-11-20T09:52:25;1.93;;;1.67;;
305;SDS011;137;48.578;9.180;2022-11-20T09:55:06;1.70;;;1.20;;
305;SDS011;137;48.578;9.180;2022-11-20T09:57:58;1.30;;;1.10;;
305;SDS011;137;48.578;9.180;2022-11-20T10:03:16;1.70;;;1.07;;
305;SDS011;137;48.578;9.180;2022-11-20T10:06:08;2.07;;;1.37;;
305;SDS011;137;48.578;9.180;2022-11-20T10:09:06;1.60;;;1.50;;
305;SDS011;137;48.578;9.180;2022-11-20T10:11:46;1.50;;;1.27;;
305;SDS011;137;48.578;9.180;2022-11-20T10:14:40;1.50;;;1.30;;
305;SDS011;137;48.578;9.180;2022-11-20T10:32:58;1.67;;;1.40;;
305;SDS011;137;48.578;9.180;2022-11-20T10:35:40;1.30;;;1.17;;
305;SDS011;137;48.578;9.180;2022-11-20T10:38:29;1.33;;;1.10;;
305;SDS011;137;48.578;9.180;2022-11-20T10:41:16;1.37;;;1.27;;
305;SDS011;137;48.578;9.180;2022-11-20T10:44:01;1.87;;;1.23;;
305;SDS011;137;48.578;9.180;2022-11-20T10:46:59;1.60;;;1.30;;
305;SDS011;137;48.578;9.180;2022-11-20T10:49:26;2.00;;;1.10;;
305;SDS011;137;48.578;9.180;2022-11-20T10:52:04;2.03;;;1.07;;
305;SDS011;137;48.578;9.180;2022-11-20T10:55:24;1.10;;;0.80;;
305;SDS011;137;48.578;9.180;2022-11-20T10:58:13;2.23;;;1.40;;
305;SDS011;137;48.578;9.180;2022-11-20T11:01:03;1.77;;;1.20;;
305;SDS011;137;48.578;9.180;2022-11-20T11:39:18;2.13;;;0.80;;
305;SDS011;137;48.578;9.180;2022-11-20T11:42:00;2.23;;;1.20;;
305;SDS011;137;48.578;9.180;2022-11-20T11:44:28;2.43;;;1.00;;
305;SDS011;137;48.578;9.180;2022-11-20T11:47:21;1.20;;;0.90;;
305;SDS011;137;48.578;9.180;2022-11-20T11:50:14;1.83;;;1.20;;
305;SDS011;137;48.578;9.180;2022-11-20T11:53:00;2.40;;;1.07;;
305;SDS011;137;48.578;9.180;2022-11-20T11:58:49;1.47;;;0.97;;
305;SDS011;137;48.578;9.180;2022-11-20T12:01:31;1.20;;;0.80;;
305;SDS011;137;48.578;9.180;2022-11-20T12:04:04;1.30;;;0.93;;
305;SDS011;137;48.578;9.180;2022-11-20T12:06:39;2.10;;;1.23;;
305;SDS011;137;48.578;9.180;2022-11-20T12:09:11;1.40;;;1.00;;
305;SDS011;137;48.578;9.180;2022-11-20T12:14:34;1.47;;;0.80;;
305;SDS011;137;48.578;9.180;2022-11-20T12:17:08;1.10;;;0.80;;
305;SDS011;137;48.578;9.180;2022-11-20T12:19:52;1.20;;;0.70;;
305;SDS011;137;48.578;9.180;2022-11-20T12:22:36;2.37;;;0.90;;
305;SDS011;137;48.578;9.180;2022-11-20T12:25:14;1.67;;;1.00;;
305;SDS011;137;48.578;9.180;2022-11-20T12:28:20;1.10;;;0.70;;
305;SDS011;137;48.578;9.180;2022-11-20T12:34:30;2.60;;;1.00;;
305;SDS011;137;48.578;9.180;2022-11-20T12:37:15;2.70;;;0.83;;
305;SDS011;137;48.578;9.180;2022-11-20T12:39:54;2.00;;;1.10;;
305;SDS011;137;48.578;9.180;2022-11-20T12:42:43;2.13;;;1.20;;
305;SDS011;137;48.578;9.180;2022-11-20T12:45:54;2.23;;;1.00;;
305;SDS011;137;48.578;9.180;2022-11-20T12:48:38;2.60;;;1.00;;
305;SDS011;137;48.578;9.180;2022-11-20T12:51:14;2.53;;;0.90;;
305;SDS011;137;48.578;9.180;2022-11-20T12:57:35;1.03;;;0.70;;
305;SDS011;137;48.578;9.180;2022-11-20T13:10:31;2.10;;;0.90;;
305;SDS011;137;48.578;9.180;2022-11-20T13:13:25;1.20;;;0.73;;
305;SDS011;137;48.578;9.180;2022-11-20T13:40:52;0.97;;;0.73;;
305;SDS011;137;48.578;9.180;2022-11-20T13:43:57;1.07;;;0.70;;
305;SDS011;137;48.578;9.180;2022-11-20T15:14:49;1.90;;;1.00;;
305;SDS011;137;48.578;9.180;2022-11-20T15:17:23;2.70;;;1.10;;
305;SDS011;137;48.578;9.180;2022-11-20T15:19:50;1.50;;;1.07;;
305;SDS011;137;48.578;9.180;2022-11-20T15:22:21;2.87;;;1.30;;
305;SDS011;137;48.578;9.180;2022-11-20T15:25:16;2.27;;;1.40;;
305;SDS011;137;48.578;9.180;2022-11-20T15:28:20;1.33;;;0.87;;
305;SDS011;137;48.578;9.180;2022-11-20T15:40:38;3.00;;;2.50;;
305;SDS011;137;48.578;9.180;2022-11-20T15:43:15;5.20;;;4.10;;
305;SDS011;137;48.578;9.180;2022-11-20T15:49:03;2.50;;;1.70;;
305;SDS011;137;48.578;9.180;2022-11-20T15:51:48;1.80;;;1.60;;
305;SDS011;137;48.578;9.180;2022-11-20T15:54:31;2.77;;;2.57;;
305;SDS011;137;48.578;9.180;2022-11-20T16:51:23;2.57;;;2.30;;
305;SDS011;137;48.578;9.180;2022-11-20T16:54:09;2.17;;;1.80;;
305;SDS011;137;48.578;9.180;2022-11-20T16:56:50;3.00;;;2.20;;
305;SDS011;137;48.578;9.180;2022-11-20T16:59:31;2.10;;;1.60;;
305;SDS011;137;48.578;9.180;2022-11-20T17:02:14;1.90;;;1.30;;
305;SDS011;137;48.578;9.180;2022-11-20T17:56:30;2.97;;;1.67;;
305;SDS011;137;48.578;9.180;2022-11-20T17:59:15;1.30;;;1.17;;
305;SDS011;137;48.578;9.180;2022-11-20T18:01:45;1.60;;;1.37;;
305;SDS011;137;48.578;9.180;2022-11-20T18:04:12;1.77;;;1.30;;
305;SDS011;137;48.578;9.180;2022-11-20T18:06:39;1.83;;;1.53;;
305;SDS011;137;48.578;9.180;2022-11-20T18:09:08;1.60;;;1.50;;
305;SDS011;137;48.578;9.180;2022-11-20T18:11:36;2.10;;;1.50;;
305;SDS011;137;48.578;9.180;2022-11-20T18:14:06;2.03;;;1.37;;
305;SDS011;137;48.578;9.180;2022-11-20T18:16:57;2.07;;;1.87;;
305;SDS011;137;48.578;9.180;2022-11-20T18:19:25;1.73;;;1.63;;
305;SDS011;137;48.578;9.180;2022-11-20T18:21:54;1.80;;;1.63;;
305;SDS011;137;48.578;9.180;2022-11-20T18:24:22;2.90;;;1.70;;
305;SDS011;137;48.578;9.180;2022-11-20T18:26:51;1.90;;;1.70;;
305;SDS011;137;48.578;9.180;2022-11-20T18:29:18;1.67;;;1.47;;
305;SDS011;137;48.578;9.180;2022-11-20T18:31:45;2.13;;;1.70;;
305;SDS011;137;48.578;9.180;2022-11-20T18:34:12;2.57;;;2.30;;
305;SDS011;137;48.578;9.180;2022-11-20T18:36:41;2.20;;;1.67;;
305;SDS011;137;48.578;9.180;2022-11-20T18:39:10;2.70;;;1.70;;
305;SDS011;137;48.578;9.180;2022-11-20T18:41:38;2.70;;;2.20;;
305;SDS011;137;48.578;9.180;2022-11-20T18:44:26;4.03;;;1.87;;
305;SDS011;137;48.578;9.180;2022-11-20T18:47:12;1.87;;;1.70;;
305;SDS011;137;48.578;9.180;2022-11-20T18:49:41;1.90;;;1.30;;
305;SDS011;137;48.578;9.180;2022-11-20T18:52:10;1.50;;;1.30;;
305;SDS011;137;48.578;9.180;2022-11-20T18:54:37;1.40;;;1.30;;
305;SDS011;137;48.578;9.180;2022-11-20T18:57:05;2.73;;;1.67;;
305;SDS011;137;48.578;9.180;2022-11-20T18:59:37;2.10;;;1.80;;
305;SDS011;137;48.578;9.180;2022-11-20T19:02:05;1.63;;;1.23;;
305;SDS011;137;48.578;9.180;2022-11-20T19:04:34;3.30;;;1.70;;
305;SDS011;137;48.578;9.180;2022-11-20T19:07:01;1.43;;;1.30;;
305;SDS011;137;48.578;9.180;2022-11-20T19:09:28;2.57;;;1.23;;
305;SDS011;137;48.578;9.180;2022-11-20T19:11:56;1.20;;;1.00;;
305;SDS011;137;48.578;9.180;2022-11-20T19:14:23;1.40;;;1.00;;
305;SDS011;137;48.578;9.180;2022-11-20T19:16:52;1.73;;;1.00;;
305;SDS011;137;48.578;9.180;2022-11-20T19:19:19;1.63;;;1.17;;
305;SDS011;137;48.578;9.180;2022-11-20T19:21:48;1.33;;;0.90;;
305;SDS011;137;48.578;9.180;2022-11-20T19:24:16;3.27;;;1.07;;
305;SDS011;137;48.578;9.180;2022-11-20T19:26:44;2.03;;;1.07;;
305;SDS011;137;48.578;9.180;2022-11-20T19:29:13;1.60;;;1.03;;
305;SDS011;137;48.578;9.180;2022-11-20T19:31:42;1.10;;;0.80;;
305;SDS011;137;48.578;9.180;2022-11-20T19:34:11;1.90;;;0.90;;
305;SDS011;137;48.578;9.180;2022-11-20T19:36:40;1.00;;;0.80;;
305;SDS011;137;48.578;9.180;2022-11-20T19:39:09;1.07;;;0.73;;
305;SDS011;137;48.578;9.180;2022-11-20T19:41:41;1.30;;;0.93;;
305;SDS011;137;48.578;9.180;2022-11-20T19:44:22;0.90;;;0.70;;
305;SDS011;137;48.578;9.180;2022-11-20T19:47:38;1.07;;;0.70;;
305;SDS011;137;48.578;9.180;2022-11-20T19:53:28;1.63;;;0.97;;
305;SDS011;137;48.578;9.180;2022-11-20T19:56:10;0.90;;;0.70;;
305;SDS011;137;48.578;9.180;2022-11-20T19:58:52;1.20;;;0.70;;
305;SDS011;137;48.578;9.180;2022-11-20T20:59:06;1.20;;;0.70;;
305;SDS011;137;48.578;9.180;2022-11-20T21:01:33;1.00;;;0.70;;
305;SDS011;137;48.578;9.180;2022-11-20T21:03:59;1.00;;;0.60;;
305;SDS011;137;48.578;9.180;2022-11-20T21:06:26;1.20;;;0.80;;
305;SDS011;137;48.578;9.180;2022-11-20T21:08:53;1.20;;;0.77;;
305;SDS011;137;48.578;9.180;2022-11-20T21:11:23;1.40;;;0.73;;
305;SDS011;137;48.578;9.180;2022-11-20T21:13:50;1.47;;;0.70;;
305;SDS011;137;48.578;9.180;2022-11-20T21:16:18;0.90;;;0.60;;
305;SDS011;137;48.578;9.180;2022-11-20T21:18:46;1.10;;;0.70;;
305;SDS011;137;48.578;9.180;2022-11-20T21:21:14;1.07;;;0.70;;
305;SDS011;137;48.578;9.180;2022-11-20T21:23:59;1.03;;;0.80;;
305;SDS011;137;48.578;9.180;2022-11-20T21:26:26;1.10;;;0.67;;
305;SDS011;137;48.578;9.180;2022-11-20T21:28:53;2.23;;;0.90;;
305;SDS011;137;48.578;9.180;2022-11-20T21:31:23;1.00;;;0.70;;
305;SDS011;137;48.578;9.180;2022-11-20T21:33:52;1.00;;;0.80;;
305;SDS011;137;48.578;9.180;2022-11-20T21:36:20;1.20;;;0.80;;
305;SDS011;137;48.578;9.180;2022-11-20T21:38:49;1.20;;;0.80;;
305;SDS011;137;48.578;9.180;2022-11-20T21:41:17;1.07;;;0.83;;
305;SDS011;137;48.578;9.180;2022-11-20T21:43:44;1.00;;;0.70;;
305;SDS011;137;48.578;9.180;2022-11-20T21:46:11;0.90;;;0.63;;
305;SDS011;137;48.578;9.180;2022-11-20T21:48:41;0.90;;;0.70;;
305;SDS011;137;48.578;9.180;2022-11-20T21:51:09;1.00;;;0.70;;
305;SDS011;137;48.578;9.180;2022-11-20T21:53:37;1.63;;;0.70;;
305;SDS011;137;48.578;9.180;2022-11-20T21:56:05;1.00;;;0.80;;
305;SDS011;137;48.578;9.180;2022-11-20T21:58:33;1.20;;;0.80;;
305;SDS011;137;48.578;9.180;2022-11-20T22:01:06;1.73;;;0.97;;
305;SDS011;137;48.578;9.180;2022-11-20T22:03:33;1.30;;;0.80;;
305;SDS011;137;48.578;9.180;2022-11-20T22:06:01;1.67;;;0.90;;
305;SDS011;137;48.578;9.180;2022-11-20T22:08:30;1.00;;;0.80;;
305;SDS011;137;48.578;9.180;2022-11-20T22:10:57;1.17;;;0.70;;
305;SDS011;137;48.578;9.180;2022-11-20T22:13:26;1.27;;;0.90;;
305;SDS011;137;48.578;9.180;2022-11-20T22:16:11;1.30;;;0.70;;
305;SDS011;137;48.578;9.180;2022-11-20T22:18:40;1.13;;;1.00;;
305;SDS011;137;48.578;9.180;2022-11-20T22:21:10;1.53;;;0.70;;
305;SDS011;137;48.578;9.180;2022-11-20T22:23:38;1.00;;;0.80;;
305;SDS011;137;48.578;9.180;2022-11-20T22:26:05;1.13;;;1.00;;
305;SDS011;137;48.578;9.180;2022-11-20T22:28:34;1.73;;;1.63;;
305;SDS011;137;48.578;9.180;2022-11-20T22:31:01;1.10;;;0.90;;